sensor_id;sensor_type;location;lat;lon;timestamp;P1;durP1;ratioP1;P2;durP2;ratioP2
48945;SDS011;34999;50.940;3.998;2023-03-01T00:01:18;16.77;;;11.10;;
48945;SDS011;34999;50.940;3.998;2023-03-01T00:03:47;17.93;;;11.53;;
48945;SDS011;34999;50.940;3.998;2023-03-01T00:06:16;15.53;;;11.07;;
48945;SDS011;34999;50.940;3.998;2023-03-01T00:08:45;18.30;;;11.20;;
48945;SDS011;34999;50.940;3.998;2023-03-01T00:11:14;17.60;;;10.83;;
48945;SDS011;34999;50.940;3.998;2023-03-01T00:13:44;19.07;;;11.53;;
48945;SDS011;34999;50.940;3.998;2023-03-01T00:16:17;17.73;;;11.50;;
48945;SDS011;34999;50.940;3.998;2023-03-01T00:18:46;18.57;;;11.03;;
48945;SDS011;34999;50.940;3.998;2023-03-01T00:21:14;17.97;;;10.87;;
48945;SDS011;34999;50.940;3.998;2023-03-01T00:23:43;18.03;;;11.07;;
48945;SDS011;34999;50.940;3.998;2023-03-01T00:26:12;17.33;;;11.33;;
48945;SDS011;34999;50.940;3.998;2023-03-01T00:28:41;17.70;;;10.37;;
48945;SDS011;34999;50.940;3.998;2023-03-01T00:31:10;15.30;;;10.67;;
48945;SDS011;34999;50.940;3.998;2023-03-01T00:33:41;19.13;;;11.67;;
48945;SDS011;34999;50.940;3.998;2023-03-01T00:36:10;17.13;;;10.87;;
48945;SDS011;34999;50.940;3.998;2023-03-01T00:38:40;17.27;;;10.80;;
48945;SDS011;34999;50.940;3.998;2023-03-01T00:41:11;15.67;;;10.83;;
48945;SDS011;34999;50.940;3.998;2023-03-01T00:43:40;16.97;;;10.93;;
48945;SDS011;34999;50.940;3.998;2023-03-01T00:46:09;17.80;;;11.63;;
48945;SDS011;34999;50.940;3.998;2023-03-01T00:48:39;16.83;;;10.40;;
48945;SDS011;34999;50.940;3.998;2023-03-01T00:51:10;17.73;;;11.03;;
48945;SDS011;34999;50.940;3.998;2023-03-01T00:53:39;14.03;;;10.50;;
48945;SDS011;34999;50.940;3.998;2023-03-01T00:56:10;17.13;;;10.57;;
48945;SDS011;34999;50.940;3.998;2023-03-01T00:58:39;17.17;;;10.87;;
48945;SDS011;34999;50.940;3.998;2023-03-01T01:01:08;20.30;;;11.43;;
48945;SDS011;34999;50.940;3.998;2023-03-01T01:03:46;22.50;;;10.87;;
48945;SDS011;34999;50.940;3.998;2023-03-01T01:06:16;19.33;;;10.70;;
48945;SDS011;34999;50.940;3.998;2023-03-01T01:08:46;16.60;;;11.10;;
48945;SDS011;34999;50.940;3.998;2023-03-01T01:11:14;18.10;;;11.03;;
48945;SDS011;34999;50.940;3.998;2023-03-01T01:13:43;16.60;;;10.67;;
48945;SDS011;34999;50.940;3.998;2023-03-01T01:16:13;17.53;;;10.93;;
48945;SDS011;34999;50.940;3.998;2023-03-01T01:18:42;20.03;;;11.83;;
48945;SDS011;34999;50.940;3.998;2023-03-01T01:21:13;16.37;;;10.47;;
48945;SDS011;34999;50.940;3.998;2023-03-01T01:23:43;19.17;;;11.17;;
48945;SDS011;34999;50.940;3.998;2023-03-01T01:26:13;18.83;;;11.70;;
48945;SDS011;34999;50.940;3.998;2023-03-01T01:28:43;19.03;;;11.13;;
48945;SDS011;34999;50.940;3.998;2023-03-01T01:31:11;17.20;;;10.43;;
48945;SDS011;34999;50.940;3.998;2023-03-01T01:33:40;19.47;;;10.83;;
48945;SDS011;34999;50.940;3.998;2023-03-01T01:36:08;15.07;;;10.10;;
48945;SDS011;34999;50.940;3.998;2023-03-01T01:38:38;18.20;;;10.93;;
48945;SDS011;34999;50.940;3.998;2023-03-01T01:41:09;19.53;;;10.40;;
48945;SDS011;34999;50.940;3.998;2023-03-01T01:43:40;15.03;;;10.00;;
48945;SDS011;34999;50.940;3.998;2023-03-01T01:46:12;18.57;;;10.97;;
48945;SDS011;34999;50.940;3.998;2023-03-01T01:48:48;16.13;;;10.40;;
48945;SDS011;34999;50.940;3.998;2023-03-01T01:51:22;19.33;;;10.80;;
48945;SDS011;34999;50.940;3.998;2023-03-01T01:53:54;22.03;;;10.73;;
48945;SDS011;34999;50.940;3.998;2023-03-01T01:56:26;18.37;;;10.50;;
48945;SDS011;34999;50.940;3.998;2023-03-01T01:58:57;15.17;;;10.23;;
48945;SDS011;34999;50.940;3.998;2023-03-01T02:01:26;19.33;;;10.13;;
48945;SDS011;34999;50.940;3.998;2023-03-01T02:03:54;18.70;;;10.77;;
48945;SDS011;34999;50.940;3.998;2023-03-01T02:06:25;17.20;;;10.20;;
48945;SDS011;34999;50.940;3.998;2023-03-01T02:08:59;18.17;;;10.37;;
48945;SDS011;34999;50.940;3.998;2023-03-01T02:11:31;18.73;;;10.43;;
48945;SDS011;34999;50.940;3.998;2023-03-01T02:14:00;16.00;;;10.47;;
48945;SDS011;34999;50.940;3.998;2023-03-01T02:16:28;18.23;;;10.03;;
48945;SDS011;34999;50.940;3.998;2023-03-01T02:18:58;16.33;;;10.53;;
48945;SDS011;34999;50.940;3.998;2023-03-01T02:21:30;21.23;;;11.07;;
48945;SDS011;34999;50.940;3.998;2023-03-01T02:24:13;19.13;;;10.93;;
48945;SDS011;34999;50.940;3.998;2023-03-01T02:26:53;18.43;;;10.70;;
48945;SDS011;34999;50.940;3.998;2023-03-01T02:29:25;18.77;;;10.60;;
48945;SDS011;34999;50.940;3.998;2023-03-01T02:31:56;19.90;;;10.77;;
48945;SDS011;34999;50.940;3.998;2023-03-01T02:34:26;16.47;;;9.80;;
48945;SDS011;34999;50.940;3.998;2023-03-01T02:36:56;21.77;;;11.43;;
48945;SDS011;34999;50.940;3.998;2023-03-01T02:39:30;18.17;;;9.93;;
48945;SDS011;34999;50.940;3.998;2023-03-01T02:42:01;14.50;;;10.63;;
48945;SDS011;34999;50.940;3.998;2023-03-01T02:44:32;17.93;;;10.83;;
48945;SDS011;34999;50.940;3.998;2023-03-01T02:47:01;16.10;;;10.60;;
48945;SDS011;34999;50.940;3.998;2023-03-01T02:49:33;18.40;;;11.37;;
48945;SDS011;34999;50.940;3.998;2023-03-01T02:52:13;19.50;;;11.27;;
48945;SDS011;34999;50.940;3.998;2023-03-01T02:54:50;17.77;;;10.30;;
48945;SDS011;34999;50.940;3.998;2023-03-01T02:57:22;14.07;;;10.33;;
48945;SDS011;34999;50.940;3.998;2023-03-01T02:59:55;15.27;;;10.10;;
48945;SDS011;34999;50.940;3.998;2023-03-01T03:02:27;19.47;;;10.23;;
48945;SDS011;34999;50.940;3.998;2023-03-01T03:05:04;17.47;;;10.93;;
48945;SDS011;34999;50.940;3.998;2023-03-01T03:07:36;22.73;;;10.70;;
48945;SDS011;34999;50.940;3.998;2023-03-01T03:10:07;19.13;;;10.57;;
48945;SDS011;34999;50.940;3.998;2023-03-01T03:12:37;17.53;;;10.10;;
48945;SDS011;34999;50.940;3.998;2023-03-01T03:15:08;18.10;;;10.77;;
48945;SDS011;34999;50.940;3.998;2023-03-01T03:17:39;20.43;;;10.87;;
48945;SDS011;34999;50.940;3.998;2023-03-01T03:20:12;17.87;;;10.97;;
48945;SDS011;34999;50.940;3.998;2023-03-01T03:22:45;17.37;;;10.53;;
48945;SDS011;34999;50.940;3.998;2023-03-01T03:25:14;23.23;;;11.00;;
48945;SDS011;34999;50.940;3.998;2023-03-01T03:27:44;19.37;;;10.97;;
48945;SDS011;34999;50.940;3.998;2023-03-01T03:30:17;16.73;;;11.13;;
48945;SDS011;34999;50.940;3.998;2023-03-01T03:32:47;19.87;;;11.03;;
48945;SDS011;34999;50.940;3.998;2023-03-01T03:35:20;18.13;;;10.83;;
48945;SDS011;34999;50.940;3.998;2023-03-01T03:37:50;17.03;;;11.00;;
48945;SDS011;34999;50.940;3.998;2023-03-01T03:40:33;15.90;;;10.57;;
48945;SDS011;34999;50.940;3.998;2023-03-01T03:43:03;21.80;;;11.67;;
48945;SDS011;34999;50.940;3.998;2023-03-01T03:45:34;20.07;;;10.80;;
48945;SDS011;34999;50.940;3.998;2023-03-01T03:48:05;17.80;;;10.47;;
48945;SDS011;34999;50.940;3.998;2023-03-01T03:50:35;20.33;;;11.30;;
48945;SDS011;34999;50.940;3.998;2023-03-01T03:53:06;16.13;;;11.37;;
48945;SDS011;34999;50.940;3.998;2023-03-01T03:55:35;18.17;;;10.87;;
48945;SDS011;34999;50.940;3.998;2023-03-01T03:58:06;20.13;;;11.57;;
48945;SDS011;34999;50.940;3.998;2023-03-01T04:00:38;16.97;;;10.20;;
48945;SDS011;34999;50.940;3.998;2023-03-01T04:03:11;16.97;;;11.03;;
48945;SDS011;34999;50.940;3.998;2023-03-01T04:05:41;19.03;;;11.23;;
48945;SDS011;34999;50.940;3.998;2023-03-01T04:08:12;19.03;;;11.43;;
48945;SDS011;34999;50.940;3.998;2023-03-01T04:10:42;22.30;;;12.30;;
48945;SDS011;34999;50.940;3.998;2023-03-01T04:13:14;17.93;;;11.63;;
48945;SDS011;34999;50.940;3.998;2023-03-01T04:15:47;23.03;;;12.00;;
48945;SDS011;34999;50.940;3.998;2023-03-01T04:18:17;21.90;;;12.37;;
48945;SDS011;34999;50.940;3.998;2023-03-01T04:20:48;18.47;;;11.83;;
48945;SDS011;34999;50.940;3.998;2023-03-01T04:23:19;22.83;;;11.67;;
48945;SDS011;34999;50.940;3.998;2023-03-01T04:25:48;21.37;;;11.80;;
48945;SDS011;34999;50.940;3.998;2023-03-01T04:28:22;21.33;;;12.20;;
48945;SDS011;34999;50.940;3.998;2023-03-01T04:30:53;19.67;;;11.60;;
48945;SDS011;34999;50.940;3.998;2023-03-01T04:33:23;22.47;;;12.23;;
48945;SDS011;34999;50.940;3.998;2023-03-01T04:35:52;20.97;;;12.00;;
48945;SDS011;34999;50.940;3.998;2023-03-01T04:38:20;21.83;;;12.60;;
48945;SDS011;34999;50.940;3.998;2023-03-01T04:40:49;23.60;;;12.93;;
48945;SDS011;34999;50.940;3.998;2023-03-01T04:43:17;29.70;;;13.77;;
48945;SDS011;34999;50.940;3.998;2023-03-01T04:45:45;25.03;;;13.97;;
48945;SDS011;34999;50.940;3.998;2023-03-01T04:48:15;29.63;;;14.10;;
48945;SDS011;34999;50.940;3.998;2023-03-01T04:50:43;22.33;;;13.33;;
48945;SDS011;34999;50.940;3.998;2023-03-01T04:53:11;26.17;;;12.90;;
48945;SDS011;34999;50.940;3.998;2023-03-01T04:55:40;23.20;;;13.00;;
48945;SDS011;34999;50.940;3.998;2023-03-01T04:58:08;22.30;;;12.90;;
48945;SDS011;34999;50.940;3.998;2023-03-01T05:00:36;18.93;;;12.03;;
48945;SDS011;34999;50.940;3.998;2023-03-01T05:03:04;23.10;;;13.00;;
48945;SDS011;34999;50.940;3.998;2023-03-01T05:05:35;19.37;;;12.50;;
48945;SDS011;34999;50.940;3.998;2023-03-01T05:08:05;21.93;;;12.53;;
48945;SDS011;34999;50.940;3.998;2023-03-01T05:10:35;25.63;;;13.90;;
48945;SDS011;34999;50.940;3.998;2023-03-01T05:13:05;23.80;;;13.93;;
48945;SDS011;34999;50.940;3.998;2023-03-01T05:15:33;24.03;;;13.97;;
48945;SDS011;34999;50.940;3.998;2023-03-01T05:18:03;25.83;;;14.63;;
48945;SDS011;34999;50.940;3.998;2023-03-01T05:20:39;24.40;;;13.17;;
48945;SDS011;34999;50.940;3.998;2023-03-01T05:23:07;26.13;;;13.70;;
48945;SDS011;34999;50.940;3.998;2023-03-01T05:25:35;25.43;;;14.07;;
48945;SDS011;34999;50.940;3.998;2023-03-01T05:28:06;26.23;;;14.70;;
48945;SDS011;34999;50.940;3.998;2023-03-01T05:30:38;32.17;;;14.00;;
48945;SDS011;34999;50.940;3.998;2023-03-01T05:33:06;28.43;;;14.63;;
48945;SDS011;34999;50.940;3.998;2023-03-01T05:35:41;24.23;;;13.47;;
48945;SDS011;34999;50.940;3.998;2023-03-01T05:38:11;25.57;;;13.87;;
48945;SDS011;34999;50.940;3.998;2023-03-01T05:40:41;22.30;;;13.80;;
48945;SDS011;34999;50.940;3.998;2023-03-01T05:43:11;22.63;;;12.73;;
48945;SDS011;34999;50.940;3.998;2023-03-01T05:45:40;22.50;;;13.30;;
48945;SDS011;34999;50.940;3.998;2023-03-01T05:48:09;20.57;;;12.73;;
48945;SDS011;34999;50.940;3.998;2023-03-01T05:50:39;24.60;;;13.50;;
48945;SDS011;34999;50.940;3.998;2023-03-01T05:53:11;29.07;;;13.30;;
48945;SDS011;34999;50.940;3.998;2023-03-01T05:55:41;22.97;;;13.60;;
48945;SDS011;34999;50.940;3.998;2023-03-01T05:58:12;29.33;;;14.17;;
48945;SDS011;34999;50.940;3.998;2023-03-01T06:00:43;22.83;;;13.30;;
48945;SDS011;34999;50.940;3.998;2023-03-01T06:03:12;29.23;;;13.87;;
48945;SDS011;34999;50.940;3.998;2023-03-01T06:05:43;25.33;;;14.87;;
48945;SDS011;34999;50.940;3.998;2023-03-01T06:08:12;26.63;;;14.17;;
48945;SDS011;34999;50.940;3.998;2023-03-01T06:10:41;24.30;;;13.80;;
48945;SDS011;34999;50.940;3.998;2023-03-01T06:13:09;23.97;;;13.63;;
48945;SDS011;34999;50.940;3.998;2023-03-01T06:15:37;24.23;;;13.93;;
48945;SDS011;34999;50.940;3.998;2023-03-01T06:18:05;24.50;;;13.83;;
48945;SDS011;34999;50.940;3.998;2023-03-01T06:20:34;25.83;;;14.03;;
48945;SDS011;34999;50.940;3.998;2023-03-01T06:23:03;23.43;;;13.63;;
48945;SDS011;34999;50.940;3.998;2023-03-01T06:25:32;27.33;;;13.67;;
48945;SDS011;34999;50.940;3.998;2023-03-01T06:28:01;26.87;;;14.23;;
48945;SDS011;34999;50.940;3.998;2023-03-01T06:30:30;23.33;;;13.97;;
48945;SDS011;34999;50.940;3.998;2023-03-01T06:32:59;25.90;;;13.73;;
48945;SDS011;34999;50.940;3.998;2023-03-01T06:35:28;25.87;;;13.97;;
48945;SDS011;34999;50.940;3.998;2023-03-01T06:37:58;28.10;;;13.97;;
48945;SDS011;34999;50.940;3.998;2023-03-01T06:40:28;26.90;;;14.07;;
48945;SDS011;34999;50.940;3.998;2023-03-01T06:42:57;25.17;;;14.47;;
48945;SDS011;34999;50.940;3.998;2023-03-01T06:45:27;29.47;;;14.57;;
48945;SDS011;34999;50.940;3.998;2023-03-01T06:48:01;27.73;;;14.03;;
48945;SDS011;34999;50.940;3.998;2023-03-01T06:50:31;29.60;;;16.03;;
48945;SDS011;34999;50.940;3.998;2023-03-01T06:52:59;27.50;;;14.30;;
48945;SDS011;34999;50.940;3.998;2023-03-01T06:55:29;26.10;;;14.47;;
48945;SDS011;34999;50.940;3.998;2023-03-01T06:57:58;28.40;;;14.60;;
48945;SDS011;34999;50.940;3.998;2023-03-01T07:00:28;31.77;;;14.87;;
48945;SDS011;34999;50.940;3.998;2023-03-01T07:02:58;37.97;;;18.00;;
48945;SDS011;34999;50.940;3.998;2023-03-01T07:05:28;32.60;;;17.93;;
48945;SDS011;34999;50.940;3.998;2023-03-01T07:07:57;35.27;;;18.60;;
48945;SDS011;34999;50.940;3.998;2023-03-01T07:10:25;38.00;;;19.47;;
48945;SDS011;34999;50.940;3.998;2023-03-01T07:12:55;33.90;;;19.50;;
48945;SDS011;34999;50.940;3.998;2023-03-01T07:15:24;34.17;;;18.23;;
48945;SDS011;34999;50.940;3.998;2023-03-01T07:17:53;31.20;;;16.97;;
48945;SDS011;34999;50.940;3.998;2023-03-01T07:20:21;28.77;;;16.37;;
48945;SDS011;34999;50.940;3.998;2023-03-01T07:22:52;31.87;;;14.87;;
48945;SDS011;34999;50.940;3.998;2023-03-01T07:25:20;31.60;;;14.70;;
48945;SDS011;34999;50.940;3.998;2023-03-01T07:27:51;28.30;;;14.37;;
48945;SDS011;34999;50.940;3.998;2023-03-01T07:30:21;30.27;;;14.57;;
48945;SDS011;34999;50.940;3.998;2023-03-01T07:32:52;31.47;;;14.77;;
48945;SDS011;34999;50.940;3.998;2023-03-01T07:35:22;32.23;;;16.30;;
48945;SDS011;34999;50.940;3.998;2023-03-01T07:37:51;37.03;;;16.90;;
48945;SDS011;34999;50.940;3.998;2023-03-01T07:40:19;31.50;;;16.23;;
48945;SDS011;34999;50.940;3.998;2023-03-01T07:42:48;29.87;;;15.67;;
48945;SDS011;34999;50.940;3.998;2023-03-01T07:45:16;26.70;;;15.80;;
48945;SDS011;34999;50.940;3.998;2023-03-01T07:47:46;28.53;;;15.97;;
48945;SDS011;34999;50.940;3.998;2023-03-01T07:50:14;25.53;;;14.40;;
48945;SDS011;34999;50.940;3.998;2023-03-01T07:52:44;24.30;;;15.30;;
48945;SDS011;34999;50.940;3.998;2023-03-01T07:55:13;23.57;;;13.23;;
48945;SDS011;34999;50.940;3.998;2023-03-01T07:57:42;21.90;;;11.87;;
48945;SDS011;34999;50.940;3.998;2023-03-01T08:00:11;19.67;;;11.77;;
48945;SDS011;34999;50.940;3.998;2023-03-01T08:02:40;17.33;;;10.97;;
48945;SDS011;34999;50.940;3.998;2023-03-01T08:05:09;18.23;;;10.27;;
48945;SDS011;34999;50.940;3.998;2023-03-01T08:07:38;17.20;;;10.57;;
48945;SDS011;34999;50.940;3.998;2023-03-01T08:10:06;19.33;;;10.27;;
48945;SDS011;34999;50.940;3.998;2023-03-01T08:12:36;20.30;;;10.27;;
48945;SDS011;34999;50.940;3.998;2023-03-01T08:15:04;20.97;;;10.47;;
48945;SDS011;34999;50.940;3.998;2023-03-01T08:17:33;21.30;;;11.00;;
48945;SDS011;34999;50.940;3.998;2023-03-01T08:20:02;15.67;;;9.57;;
48945;SDS011;34999;50.940;3.998;2023-03-01T08:22:33;16.07;;;9.70;;
48945;SDS011;34999;50.940;3.998;2023-03-01T08:25:02;17.07;;;10.00;;
48945;SDS011;34999;50.940;3.998;2023-03-01T08:27:30;13.50;;;9.17;;
48945;SDS011;34999;50.940;3.998;2023-03-01T08:29:58;15.37;;;9.47;;
48945;SDS011;34999;50.940;3.998;2023-03-01T08:32:27;10.67;;;8.63;;
48945;SDS011;34999;50.940;3.998;2023-03-01T08:34:55;18.60;;;8.60;;
48945;SDS011;34999;50.940;3.998;2023-03-01T08:37:26;14.77;;;9.40;;
48945;SDS011;34999;50.940;3.998;2023-03-01T08:39:59;14.17;;;8.83;;
48945;SDS011;34999;50.940;3.998;2023-03-01T08:42:27;12.70;;;8.87;;
48945;SDS011;34999;50.940;3.998;2023-03-01T08:44:55;12.97;;;8.80;;
48945;SDS011;34999;50.940;3.998;2023-03-01T08:47:26;12.63;;;8.30;;
48945;SDS011;34999;50.940;3.998;2023-03-01T08:49:54;15.27;;;8.90;;
48945;SDS011;34999;50.940;3.998;2023-03-01T08:52:23;12.97;;;8.73;;
48945;SDS011;34999;50.940;3.998;2023-03-01T08:54:53;12.80;;;8.93;;
48945;SDS011;34999;50.940;3.998;2023-03-01T08:57:23;10.50;;;8.97;;
48945;SDS011;34999;50.940;3.998;2023-03-01T08:59:51;13.20;;;9.40;;
48945;SDS011;34999;50.940;3.998;2023-03-01T09:02:22;12.90;;;8.40;;
48945;SDS011;34999;50.940;3.998;2023-03-01T09:04:51;17.17;;;9.73;;
48945;SDS011;34999;50.940;3.998;2023-03-01T09:07:19;13.60;;;9.17;;
48945;SDS011;34999;50.940;3.998;2023-03-01T09:09:47;12.20;;;9.17;;
48945;SDS011;34999;50.940;3.998;2023-03-01T09:12:15;9.67;;;8.67;;
48945;SDS011;34999;50.940;3.998;2023-03-01T09:14:45;15.17;;;9.17;;
48945;SDS011;34999;50.940;3.998;2023-03-01T09:17:13;13.13;;;9.07;;
48945;SDS011;34999;50.940;3.998;2023-03-01T09:19:41;11.17;;;8.47;;
48945;SDS011;34999;50.940;3.998;2023-03-01T09:22:10;13.57;;;9.33;;
48945;SDS011;34999;50.940;3.998;2023-03-01T09:24:38;10.10;;;8.53;;
48945;SDS011;34999;50.940;3.998;2023-03-01T09:27:06;12.57;;;8.67;;
48945;SDS011;34999;50.940;3.998;2023-03-01T09:29:35;11.77;;;9.33;;
48945;SDS011;34999;50.940;3.998;2023-03-01T09:32:05;12.40;;;8.77;;
48945;SDS011;34999;50.940;3.998;2023-03-01T09:34:34;11.40;;;9.03;;
48945;SDS011;34999;50.940;3.998;2023-03-01T09:37:23;12.17;;;9.10;;
48945;SDS011;34999;50.940;3.998;2023-03-01T09:39:51;12.43;;;9.00;;
48945;SDS011;34999;50.940;3.998;2023-03-01T09:42:20;10.60;;;8.70;;
48945;SDS011;34999;50.940;3.998;2023-03-01T09:44:49;12.57;;;9.23;;
48945;SDS011;34999;50.940;3.998;2023-03-01T09:47:22;15.40;;;9.23;;
48945;SDS011;34999;50.940;3.998;2023-03-01T09:49:57;13.10;;;8.63;;
48945;SDS011;34999;50.940;3.998;2023-03-01T09:52:30;12.13;;;9.30;;
48945;SDS011;34999;50.940;3.998;2023-03-01T09:55:05;11.97;;;8.97;;
48945;SDS011;34999;50.940;3.998;2023-03-01T09:57:38;13.37;;;8.60;;
48945;SDS011;34999;50.940;3.998;2023-03-01T10:00:20;13.93;;;8.87;;
48945;SDS011;34999;50.940;3.998;2023-03-01T10:02:59;10.07;;;8.80;;
48945;SDS011;34999;50.940;3.998;2023-03-01T10:05:38;13.93;;;9.13;;
48945;SDS011;34999;50.940;3.998;2023-03-01T10:08:19;12.43;;;9.27;;
48945;SDS011;34999;50.940;3.998;2023-03-01T10:10:57;16.30;;;9.73;;
48945;SDS011;34999;50.940;3.998;2023-03-01T10:13:27;10.67;;;9.33;;
48945;SDS011;34999;50.940;3.998;2023-03-01T10:16:03;15.77;;;8.83;;
48945;SDS011;34999;50.940;3.998;2023-03-01T10:18:39;11.97;;;9.13;;
48945;SDS011;34999;50.940;3.998;2023-03-01T10:21:12;9.70;;;8.53;;
48945;SDS011;34999;50.940;3.998;2023-03-01T10:23:43;9.30;;;8.20;;
48945;SDS011;34999;50.940;3.998;2023-03-01T10:26:30;11.00;;;9.17;;
48945;SDS011;34999;50.940;3.998;2023-03-01T10:29:07;12.27;;;8.90;;
48945;SDS011;34999;50.940;3.998;2023-03-01T10:31:38;13.70;;;9.03;;
48945;SDS011;34999;50.940;3.998;2023-03-01T10:34:11;11.13;;;8.70;;
48945;SDS011;34999;50.940;3.998;2023-03-01T10:36:42;12.37;;;8.70;;
48945;SDS011;34999;50.940;3.998;2023-03-01T10:39:12;10.60;;;8.60;;
48945;SDS011;34999;50.940;3.998;2023-03-01T10:41:54;11.97;;;8.60;;
48945;SDS011;34999;50.940;3.998;2023-03-01T10:44:35;13.13;;;8.30;;
48945;SDS011;34999;50.940;3.998;2023-03-01T10:47:12;11.77;;;8.23;;
48945;SDS011;34999;50.940;3.998;2023-03-01T10:49:52;12.10;;;8.10;;
48945;SDS011;34999;50.940;3.998;2023-03-01T10:52:24;13.63;;;8.90;;
48945;SDS011;34999;50.940;3.998;2023-03-01T10:54:54;13.50;;;8.40;;
48945;SDS011;34999;50.940;3.998;2023-03-01T10:57:28;11.13;;;7.90;;
48945;SDS011;34999;50.940;3.998;2023-03-01T11:00:15;10.60;;;8.20;;
48945;SDS011;34999;50.940;3.998;2023-03-01T11:02:48;8.27;;;7.47;;
48945;SDS011;34999;50.940;3.998;2023-03-01T11:05:20;12.03;;;8.10;;
48945;SDS011;34999;50.940;3.998;2023-03-01T11:07:52;10.53;;;7.63;;
48945;SDS011;34999;50.940;3.998;2023-03-01T11:10:22;8.87;;;7.70;;
48945;SDS011;34999;50.940;3.998;2023-03-01T11:12:52;10.80;;;8.30;;
48945;SDS011;34999;50.940;3.998;2023-03-01T11:15:33;11.60;;;7.73;;
48945;SDS011;34999;50.940;3.998;2023-03-01T11:18:01;10.73;;;8.00;;
48945;SDS011;34999;50.940;3.998;2023-03-01T11:20:41;10.07;;;7.73;;
48945;SDS011;34999;50.940;3.998;2023-03-01T11:23:10;10.40;;;8.27;;
48945;SDS011;34999;50.940;3.998;2023-03-01T11:25:41;8.93;;;7.90;;
48945;SDS011;34999;50.940;3.998;2023-03-01T11:28:12;9.50;;;7.53;;
48945;SDS011;34999;50.940;3.998;2023-03-01T11:30:46;8.53;;;7.63;;
48945;SDS011;34999;50.940;3.998;2023-03-01T11:33:35;8.47;;;7.70;;
48945;SDS011;34999;50.940;3.998;2023-03-01T11:36:12;12.83;;;8.53;;
48945;SDS011;34999;50.940;3.998;2023-03-01T11:38:44;9.60;;;7.70;;
48945;SDS011;34999;50.940;3.998;2023-03-01T11:41:14;10.03;;;7.20;;
48945;SDS011;34999;50.940;3.998;2023-03-01T11:43:47;9.67;;;7.83;;
48945;SDS011;34999;50.940;3.998;2023-03-01T11:49:19;9.33;;;7.70;;
48945;SDS011;34999;50.940;3.998;2023-03-01T11:52:06;9.43;;;8.07;;
48945;SDS011;34999;50.940;3.998;2023-03-01T11:54:47;9.40;;;7.83;;
48945;SDS011;34999;50.940;3.998;2023-03-01T11:57:29;8.80;;;7.47;;
48945;SDS011;34999;50.940;3.998;2023-03-01T12:00:19;8.37;;;7.50;;
48945;SDS011;34999;50.940;3.998;2023-03-01T12:03:21;9.40;;;7.80;;
48945;SDS011;34999;50.940;3.998;2023-03-01T12:06:05;10.07;;;7.90;;
48945;SDS011;34999;50.940;3.998;2023-03-01T12:08:55;11.53;;;8.47;;
48945;SDS011;34999;50.940;3.998;2023-03-01T12:11:39;9.70;;;8.20;;
48945;SDS011;34999;50.940;3.998;2023-03-01T12:17:09;13.07;;;8.60;;
48945;SDS011;34999;50.940;3.998;2023-03-01T12:19:51;8.93;;;7.97;;
48945;SDS011;34999;50.940;3.998;2023-03-01T12:22:31;10.90;;;8.10;;
48945;SDS011;34999;50.940;3.998;2023-03-01T12:25:11;10.27;;;8.43;;
48945;SDS011;34999;50.940;3.998;2023-03-01T12:27:51;10.13;;;8.43;;
48945;SDS011;34999;50.940;3.998;2023-03-01T12:30:35;10.70;;;8.13;;
48945;SDS011;34999;50.940;3.998;2023-03-01T12:33:14;7.77;;;7.00;;
48945;SDS011;34999;50.940;3.998;2023-03-01T12:35:54;10.83;;;7.77;;
48945;SDS011;34999;50.940;3.998;2023-03-01T12:38:39;10.37;;;8.13;;
48945;SDS011;34999;50.940;3.998;2023-03-01T12:44:23;8.30;;;7.50;;
48945;SDS011;34999;50.940;3.998;2023-03-01T12:47:06;13.73;;;8.23;;
48945;SDS011;34999;50.940;3.998;2023-03-01T12:49:42;10.60;;;8.17;;
48945;SDS011;34999;50.940;3.998;2023-03-01T12:52:14;10.20;;;7.70;;
48945;SDS011;34999;50.940;3.998;2023-03-01T12:54:47;8.47;;;7.63;;
48945;SDS011;34999;50.940;3.998;2023-03-01T12:57:21;10.43;;;7.57;;
48945;SDS011;34999;50.940;3.998;2023-03-01T13:00:06;8.67;;;7.77;;
48945;SDS011;34999;50.940;3.998;2023-03-01T13:02:50;11.73;;;7.73;;
48945;SDS011;34999;50.940;3.998;2023-03-01T13:05:24;9.70;;;7.60;;
48945;SDS011;34999;50.940;3.998;2023-03-01T13:08:04;9.10;;;8.17;;
48945;SDS011;34999;50.940;3.998;2023-03-01T13:10:40;10.30;;;8.20;;
48945;SDS011;34999;50.940;3.998;2023-03-01T13:13:20;9.87;;;7.77;;
48945;SDS011;34999;50.940;3.998;2023-03-01T13:15:50;11.53;;;8.13;;
48945;SDS011;34999;50.940;3.998;2023-03-01T13:18:31;9.90;;;7.87;;
48945;SDS011;34999;50.940;3.998;2023-03-01T13:21:01;9.67;;;7.50;;
48945;SDS011;34999;50.940;3.998;2023-03-01T13:23:35;10.47;;;7.87;;
48945;SDS011;34999;50.940;3.998;2023-03-01T13:26:07;8.40;;;7.50;;
48945;SDS011;34999;50.940;3.998;2023-03-01T13:28:47;10.93;;;7.73;;
48945;SDS011;34999;50.940;3.998;2023-03-01T13:34:45;11.70;;;8.60;;
48945;SDS011;34999;50.940;3.998;2023-03-01T13:37:19;10.10;;;8.13;;
48945;SDS011;34999;50.940;3.998;2023-03-01T13:39:49;10.63;;;8.00;;
48945;SDS011;34999;50.940;3.998;2023-03-01T13:45:32;8.20;;;7.40;;
48945;SDS011;34999;50.940;3.998;2023-03-01T13:48:08;10.53;;;7.77;;
48945;SDS011;34999;50.940;3.998;2023-03-01T13:50:38;11.53;;;7.60;;
48945;SDS011;34999;50.940;3.998;2023-03-01T13:53:16;9.03;;;7.80;;
48945;SDS011;34999;50.940;3.998;2023-03-01T13:55:47;8.37;;;7.40;;
48945;SDS011;34999;50.940;3.998;2023-03-01T13:58:21;8.30;;;7.43;;
48945;SDS011;34999;50.940;3.998;2023-03-01T14:01:00;9.37;;;7.70;;
48945;SDS011;34999;50.940;3.998;2023-03-01T14:03:30;11.33;;;7.80;;
48945;SDS011;34999;50.940;3.998;2023-03-01T14:06:01;9.73;;;7.83;;
48945;SDS011;34999;50.940;3.998;2023-03-01T14:08:42;11.83;;;7.77;;
48945;SDS011;34999;50.940;3.998;2023-03-01T14:14:31;9.13;;;7.20;;
48945;SDS011;34999;50.940;3.998;2023-03-01T14:20:16;9.93;;;7.60;;
48945;SDS011;34999;50.940;3.998;2023-03-01T14:22:47;10.27;;;7.90;;
48945;SDS011;34999;50.940;3.998;2023-03-01T14:25:19;12.20;;;7.07;;
48945;SDS011;34999;50.940;3.998;2023-03-01T14:27:55;10.87;;;7.40;;
48945;SDS011;34999;50.940;3.998;2023-03-01T14:30:26;10.50;;;7.37;;
48945;SDS011;34999;50.940;3.998;2023-03-01T14:32:59;10.47;;;7.23;;
48945;SDS011;34999;50.940;3.998;2023-03-01T14:35:30;9.60;;;7.40;;
48945;SDS011;34999;50.940;3.998;2023-03-01T14:38:00;6.73;;;6.10;;
48945;SDS011;34999;50.940;3.998;2023-03-01T14:40:29;7.93;;;7.13;;
48945;SDS011;34999;50.940;3.998;2023-03-01T14:43:00;8.67;;;7.37;;
48945;SDS011;34999;50.940;3.998;2023-03-01T14:45:35;9.27;;;7.43;;
48945;SDS011;34999;50.940;3.998;2023-03-01T14:48:05;12.73;;;7.50;;
48945;SDS011;34999;50.940;3.998;2023-03-01T14:50:35;10.07;;;7.57;;
48945;SDS011;34999;50.940;3.998;2023-03-01T14:53:12;8.17;;;7.10;;
48945;SDS011;34999;50.940;3.998;2023-03-01T14:55:45;11.40;;;7.43;;
48945;SDS011;34999;50.940;3.998;2023-03-01T14:58:18;8.83;;;6.97;;
48945;SDS011;34999;50.940;3.998;2023-03-01T15:00:49;9.33;;;7.20;;
48945;SDS011;34999;50.940;3.998;2023-03-01T15:03:23;10.70;;;7.47;;
48945;SDS011;34999;50.940;3.998;2023-03-01T15:05:58;10.60;;;7.13;;
48945;SDS011;34999;50.940;3.998;2023-03-01T15:08:28;8.07;;;7.20;;
48945;SDS011;34999;50.940;3.998;2023-03-01T15:11:00;11.07;;;7.17;;
48945;SDS011;34999;50.940;3.998;2023-03-01T15:13:34;8.27;;;7.37;;
48945;SDS011;34999;50.940;3.998;2023-03-01T15:16:07;16.10;;;8.17;;
48945;SDS011;34999;50.940;3.998;2023-03-01T15:18:42;9.07;;;7.50;;